Dunoon, United Kingdom
Current Conditions -  °F | °C
As of 10:50 AM on Friday 19 Dec 2014 (Local Time) from EGPF Reporting Station
Light Rain Light Rain  
Wind Chill: 36°   Ceiling: 2500
Heat Index: 43°   Visibility: 6mi
Dew Point: 36°   Wind: 14mph
Humidity: 76%   Direction: 250°WSW
Pressure: 29.65"   Gusts: NA
Location:  55.95°N, 4.92°W
Report Text: EGPF 191050Z AUTO 25012KT 9999 -RA FEW013/// BKN025/// //////TCU 06/02 Q1004
Loading
Personal Weather Stations






























Interactive Weather Map New forecast layout! Learn more

10-Day Weather Forecast

Advertisements
Track Severe Weather on mobile